sensor_id;sensor_type;location;lat;lon;timestamp;P1;durP1;ratioP1;P2;durP2;ratioP2
78581;SDS011;67878;46.242;5.974;2023-03-19T00:02:10;1.27;;;0.60;;
78581;SDS011;67878;46.242;5.974;2023-03-19T00:04:35;0.60;;;0.60;;
78581;SDS011;67878;46.242;5.974;2023-03-19T00:07:01;0.60;;;0.50;;
78581;SDS011;67878;46.242;5.974;2023-03-19T00:09:31;0.82;;;0.50;;
78581;SDS011;67878;46.242;5.974;2023-03-19T00:11:59;1.15;;;0.63;;
78581;SDS011;67878;46.242;5.974;2023-03-19T00:14:25;1.73;;;0.70;;
78581;SDS011;67878;46.242;5.974;2023-03-19T00:16:51;1.20;;;0.60;;
78581;SDS011;67878;46.242;5.974;2023-03-19T00:19:16;0.70;;;0.50;;
78581;SDS011;67878;46.242;5.974;2023-03-19T00:21:42;0.52;;;0.40;;
78581;SDS011;67878;46.242;5.974;2023-03-19T00:24:08;0.60;;;0.40;;
78581;SDS011;67878;46.242;5.974;2023-03-19T00:26:34;0.88;;;0.65;;
78581;SDS011;67878;46.242;5.974;2023-03-19T00:29:00;1.08;;;0.60;;
78581;SDS011;67878;46.242;5.974;2023-03-19T00:31:27;0.85;;;0.57;;
78581;SDS011;67878;46.242;5.974;2023-03-19T00:33:53;0.75;;;0.43;;
78581;SDS011;67878;46.242;5.974;2023-03-19T00:36:19;0.63;;;0.60;;
78581;SDS011;67878;46.242;5.974;2023-03-19T00:38:45;0.77;;;0.50;;
78581;SDS011;67878;46.242;5.974;2023-03-19T00:41:11;0.77;;;0.50;;
78581;SDS011;67878;46.242;5.974;2023-03-19T00:43:38;0.73;;;0.63;;
78581;SDS011;67878;46.242;5.974;2023-03-19T00:46:04;1.08;;;0.60;;
78581;SDS011;67878;46.242;5.974;2023-03-19T00:48:30;0.50;;;0.50;;
78581;SDS011;67878;46.242;5.974;2023-03-19T00:51:00;0.70;;;0.70;;
78581;SDS011;67878;46.242;5.974;2023-03-19T00:53:28;0.80;;;0.52;;
78581;SDS011;67878;46.242;5.974;2023-03-19T00:55:53;0.60;;;0.50;;
78581;SDS011;67878;46.242;5.974;2023-03-19T00:58:19;0.73;;;0.57;;
78581;SDS011;67878;46.242;5.974;2023-03-19T01:00:45;0.70;;;0.50;;
78581;SDS011;67878;46.242;5.974;2023-03-19T01:03:10;0.50;;;0.40;;
78581;SDS011;67878;46.242;5.974;2023-03-19T01:05:35;0.60;;;0.52;;
78581;SDS011;67878;46.242;5.974;2023-03-19T01:08:01;0.73;;;0.60;;
78581;SDS011;67878;46.242;5.974;2023-03-19T01:10:27;0.40;;;0.40;;
78581;SDS011;67878;46.242;5.974;2023-03-19T01:12:52;0.95;;;0.70;;
78581;SDS011;67878;46.242;5.974;2023-03-19T01:15:18;0.40;;;0.40;;
78581;SDS011;67878;46.242;5.974;2023-03-19T01:17:43;0.93;;;0.40;;
78581;SDS011;67878;46.242;5.974;2023-03-19T01:20:10;0.60;;;0.50;;
78581;SDS011;67878;46.242;5.974;2023-03-19T01:22:42;0.57;;;0.40;;
78581;SDS011;67878;46.242;5.974;2023-03-19T01:25:09;1.15;;;0.68;;
78581;SDS011;67878;46.242;5.974;2023-03-19T01:27:37;0.45;;;0.40;;
78581;SDS011;67878;46.242;5.974;2023-03-19T01:30:04;0.50;;;0.40;;
78581;SDS011;67878;46.242;5.974;2023-03-19T01:32:30;0.60;;;0.47;;
78581;SDS011;67878;46.242;5.974;2023-03-19T01:34:56;0.63;;;0.50;;
78581;SDS011;67878;46.242;5.974;2023-03-19T01:37:21;0.85;;;0.68;;
78581;SDS011;67878;46.242;5.974;2023-03-19T01:39:47;0.70;;;0.50;;
78581;SDS011;67878;46.242;5.974;2023-03-19T01:42:13;0.80;;;0.60;;
78581;SDS011;67878;46.242;5.974;2023-03-19T01:44:39;0.68;;;0.43;;
78581;SDS011;67878;46.242;5.974;2023-03-19T01:50:05;0.80;;;0.60;;
78581;SDS011;67878;46.242;5.974;2023-03-19T01:52:44;0.60;;;0.50;;
78581;SDS011;67878;46.242;5.974;2023-03-19T01:55:09;0.68;;;0.50;;
78581;SDS011;67878;46.242;5.974;2023-03-19T01:57:35;0.82;;;0.68;;
78581;SDS011;67878;46.242;5.974;2023-03-19T02:00:01;1.25;;;0.60;;
78581;SDS011;67878;46.242;5.974;2023-03-19T02:02:30;0.63;;;0.60;;
78581;SDS011;67878;46.242;5.974;2023-03-19T02:04:59;0.80;;;0.63;;
78581;SDS011;67878;46.242;5.974;2023-03-19T02:07:28;0.95;;;0.40;;
78581;SDS011;67878;46.242;5.974;2023-03-19T02:09:55;0.50;;;0.50;;
78581;SDS011;67878;46.242;5.974;2023-03-19T02:12:21;0.60;;;0.47;;
78581;SDS011;67878;46.242;5.974;2023-03-19T02:14:47;0.70;;;0.50;;
78581;SDS011;67878;46.242;5.974;2023-03-19T02:17:12;0.70;;;0.40;;
78581;SDS011;67878;46.242;5.974;2023-03-19T02:19:47;0.60;;;0.50;;
78581;SDS011;67878;46.242;5.974;2023-03-19T02:22:20;0.80;;;0.50;;
78581;SDS011;67878;46.242;5.974;2023-03-19T02:24:49;1.10;;;0.40;;
78581;SDS011;67878;46.242;5.974;2023-03-19T02:27:17;0.98;;;0.52;;
78581;SDS011;67878;46.242;5.974;2023-03-19T02:29:44;0.77;;;0.50;;
78581;SDS011;67878;46.242;5.974;2023-03-19T02:32:10;0.52;;;0.40;;
78581;SDS011;67878;46.242;5.974;2023-03-19T02:34:37;0.50;;;0.40;;
78581;SDS011;67878;46.242;5.974;2023-03-19T02:42:14;0.50;;;0.40;;
78581;SDS011;67878;46.242;5.974;2023-03-19T02:44:41;0.60;;;0.50;;
78581;SDS011;67878;46.242;5.974;2023-03-19T02:47:07;0.90;;;0.70;;
78581;SDS011;67878;46.242;5.974;2023-03-19T02:49:32;0.65;;;0.40;;
78581;SDS011;67878;46.242;5.974;2023-03-19T02:51:57;0.60;;;0.40;;
78581;SDS011;67878;46.242;5.974;2023-03-19T02:54:23;1.27;;;0.60;;
78581;SDS011;67878;46.242;5.974;2023-03-19T02:56:48;0.57;;;0.50;;
78581;SDS011;67878;46.242;5.974;2023-03-19T02:59:16;0.70;;;0.52;;
78581;SDS011;67878;46.242;5.974;2023-03-19T03:01:41;0.80;;;0.50;;
78581;SDS011;67878;46.242;5.974;2023-03-19T03:04:07;0.80;;;0.57;;
78581;SDS011;67878;46.242;5.974;2023-03-19T03:06:32;0.60;;;0.40;;
78581;SDS011;67878;46.242;5.974;2023-03-19T03:08:58;0.52;;;0.50;;
78581;SDS011;67878;46.242;5.974;2023-03-19T03:11:24;0.60;;;0.50;;
78581;SDS011;67878;46.242;5.974;2023-03-19T03:13:50;0.40;;;0.40;;
78581;SDS011;67878;46.242;5.974;2023-03-19T03:16:16;0.50;;;0.43;;
78581;SDS011;67878;46.242;5.974;2023-03-19T03:18:41;0.70;;;0.50;;
78581;SDS011;67878;46.242;5.974;2023-03-19T03:21:06;0.30;;;0.30;;
78581;SDS011;67878;46.242;5.974;2023-03-19T03:23:32;0.60;;;0.40;;
78581;SDS011;67878;46.242;5.974;2023-03-19T03:25:57;0.60;;;0.55;;
78581;SDS011;67878;46.242;5.974;2023-03-19T03:28:23;0.65;;;0.50;;
78581;SDS011;67878;46.242;5.974;2023-03-19T03:30:48;0.60;;;0.40;;
78581;SDS011;67878;46.242;5.974;2023-03-19T03:33:14;0.40;;;0.35;;
78581;SDS011;67878;46.242;5.974;2023-03-19T03:35:41;0.75;;;0.50;;
78581;SDS011;67878;46.242;5.974;2023-03-19T03:38:06;0.80;;;0.52;;
78581;SDS011;67878;46.242;5.974;2023-03-19T03:40:34;0.60;;;0.40;;
78581;SDS011;67878;46.242;5.974;2023-03-19T03:43:03;0.50;;;0.40;;
78581;SDS011;67878;46.242;5.974;2023-03-19T03:45:31;1.02;;;0.40;;
78581;SDS011;67878;46.242;5.974;2023-03-19T03:47:58;0.77;;;0.43;;
78581;SDS011;67878;46.242;5.974;2023-03-19T03:50:30;0.50;;;0.38;;
78581;SDS011;67878;46.242;5.974;2023-03-19T03:52:56;0.70;;;0.50;;
78581;SDS011;67878;46.242;5.974;2023-03-19T03:55:23;0.50;;;0.35;;
78581;SDS011;67878;46.242;5.974;2023-03-19T03:57:49;0.80;;;0.43;;
78581;SDS011;67878;46.242;5.974;2023-03-19T04:00:17;0.45;;;0.40;;
78581;SDS011;67878;46.242;5.974;2023-03-19T04:05:11;0.50;;;0.50;;
78581;SDS011;67878;46.242;5.974;2023-03-19T04:07:37;0.50;;;0.40;;
78581;SDS011;67878;46.242;5.974;2023-03-19T04:10:06;0.50;;;0.50;;
78581;SDS011;67878;46.242;5.974;2023-03-19T04:12:35;0.57;;;0.40;;
78581;SDS011;67878;46.242;5.974;2023-03-19T04:15:05;0.63;;;0.40;;
78581;SDS011;67878;46.242;5.974;2023-03-19T04:17:34;0.52;;;0.32;;
78581;SDS011;67878;46.242;5.974;2023-03-19T04:22:30;0.40;;;0.30;;
78581;SDS011;67878;46.242;5.974;2023-03-19T04:24:58;0.60;;;0.38;;
78581;SDS011;67878;46.242;5.974;2023-03-19T04:27:26;0.90;;;0.40;;
78581;SDS011;67878;46.242;5.974;2023-03-19T04:29:53;0.55;;;0.55;;
78581;SDS011;67878;46.242;5.974;2023-03-19T04:32:19;0.63;;;0.45;;
78581;SDS011;67878;46.242;5.974;2023-03-19T04:34:47;0.38;;;0.35;;
78581;SDS011;67878;46.242;5.974;2023-03-19T04:37:19;0.52;;;0.40;;
78581;SDS011;67878;46.242;5.974;2023-03-19T04:42:14;0.57;;;0.30;;
78581;SDS011;67878;46.242;5.974;2023-03-19T04:44:42;0.77;;;0.30;;
78581;SDS011;67878;46.242;5.974;2023-03-19T04:47:09;0.70;;;0.32;;
78581;SDS011;67878;46.242;5.974;2023-03-19T04:49:37;0.52;;;0.35;;
78581;SDS011;67878;46.242;5.974;2023-03-19T04:52:04;0.63;;;0.50;;
78581;SDS011;67878;46.242;5.974;2023-03-19T04:54:32;0.47;;;0.40;;
78581;SDS011;67878;46.242;5.974;2023-03-19T04:57:00;0.50;;;0.43;;
78581;SDS011;67878;46.242;5.974;2023-03-19T04:59:27;0.50;;;0.40;;
78581;SDS011;67878;46.242;5.974;2023-03-19T05:01:53;0.50;;;0.50;;
78581;SDS011;67878;46.242;5.974;2023-03-19T05:04:21;0.40;;;0.40;;
78581;SDS011;67878;46.242;5.974;2023-03-19T05:09:15;1.58;;;0.50;;
78581;SDS011;67878;46.242;5.974;2023-03-19T05:11:42;0.60;;;0.50;;
78581;SDS011;67878;46.242;5.974;2023-03-19T05:14:08;0.40;;;0.40;;
78581;SDS011;67878;46.242;5.974;2023-03-19T05:16:36;0.57;;;0.40;;
78581;SDS011;67878;46.242;5.974;2023-03-19T05:19:03;0.55;;;0.30;;
78581;SDS011;67878;46.242;5.974;2023-03-19T05:21:29;0.43;;;0.30;;
78581;SDS011;67878;46.242;5.974;2023-03-19T05:23:57;0.60;;;0.40;;
78581;SDS011;67878;46.242;5.974;2023-03-19T05:26:24;0.50;;;0.50;;
78581;SDS011;67878;46.242;5.974;2023-03-19T05:28:51;1.08;;;0.40;;
78581;SDS011;67878;46.242;5.974;2023-03-19T05:31:18;0.75;;;0.55;;
78581;SDS011;67878;46.242;5.974;2023-03-19T05:33:46;0.60;;;0.38;;
78581;SDS011;67878;46.242;5.974;2023-03-19T05:36:13;0.50;;;0.50;;
78581;SDS011;67878;46.242;5.974;2023-03-19T05:38:39;0.75;;;0.60;;
78581;SDS011;67878;46.242;5.974;2023-03-19T05:41:05;0.63;;;0.50;;
78581;SDS011;67878;46.242;5.974;2023-03-19T05:43:35;0.52;;;0.43;;
78581;SDS011;67878;46.242;5.974;2023-03-19T05:46:04;1.15;;;0.40;;
78581;SDS011;67878;46.242;5.974;2023-03-19T05:48:30;0.80;;;0.50;;
78581;SDS011;67878;46.242;5.974;2023-03-19T05:50:57;0.57;;;0.50;;
78581;SDS011;67878;46.242;5.974;2023-03-19T05:53:23;0.60;;;0.57;;
78581;SDS011;67878;46.242;5.974;2023-03-19T05:55:49;0.40;;;0.40;;
78581;SDS011;67878;46.242;5.974;2023-03-19T05:58:15;0.28;;;0.28;;
78581;SDS011;67878;46.242;5.974;2023-03-19T06:00:42;0.68;;;0.30;;
78581;SDS011;67878;46.242;5.974;2023-03-19T06:03:09;0.35;;;0.30;;
78581;SDS011;67878;46.242;5.974;2023-03-19T06:05:36;0.35;;;0.35;;
78581;SDS011;67878;46.242;5.974;2023-03-19T06:08:02;0.40;;;0.30;;
78581;SDS011;67878;46.242;5.974;2023-03-19T06:10:28;0.45;;;0.30;;
78581;SDS011;67878;46.242;5.974;2023-03-19T06:12:53;0.52;;;0.40;;
78581;SDS011;67878;46.242;5.974;2023-03-19T06:15:20;0.50;;;0.50;;
78581;SDS011;67878;46.242;5.974;2023-03-19T06:17:46;0.60;;;0.30;;
78581;SDS011;67878;46.242;5.974;2023-03-19T06:20:14;1.02;;;0.40;;
78581;SDS011;67878;46.242;5.974;2023-03-19T06:22:40;0.30;;;0.30;;
78581;SDS011;67878;46.242;5.974;2023-03-19T06:25:06;0.60;;;0.35;;
78581;SDS011;67878;46.242;5.974;2023-03-19T06:30:01;0.60;;;0.40;;
78581;SDS011;67878;46.242;5.974;2023-03-19T06:32:29;0.47;;;0.30;;
78581;SDS011;67878;46.242;5.974;2023-03-19T06:34:55;0.60;;;0.57;;
78581;SDS011;67878;46.242;5.974;2023-03-19T06:37:20;0.60;;;0.43;;
78581;SDS011;67878;46.242;5.974;2023-03-19T06:39:54;0.40;;;0.40;;
78581;SDS011;67878;46.242;5.974;2023-03-19T06:42:25;0.65;;;0.60;;
78581;SDS011;67878;46.242;5.974;2023-03-19T06:44:51;1.23;;;0.50;;
78581;SDS011;67878;46.242;5.974;2023-03-19T06:47:16;0.50;;;0.38;;
78581;SDS011;67878;46.242;5.974;2023-03-19T06:49:42;0.50;;;0.40;;
78581;SDS011;67878;46.242;5.974;2023-03-19T06:52:08;0.90;;;0.52;;
78581;SDS011;67878;46.242;5.974;2023-03-19T06:54:33;0.47;;;0.47;;
78581;SDS011;67878;46.242;5.974;2023-03-19T06:56:59;0.30;;;0.30;;
78581;SDS011;67878;46.242;5.974;2023-03-19T06:59:25;0.40;;;0.38;;
78581;SDS011;67878;46.242;5.974;2023-03-19T07:01:53;0.35;;;0.30;;
78581;SDS011;67878;46.242;5.974;2023-03-19T07:04:19;0.85;;;0.50;;
78581;SDS011;67878;46.242;5.974;2023-03-19T07:06:46;0.50;;;0.40;;
78581;SDS011;67878;46.242;5.974;2023-03-19T07:09:12;0.60;;;0.50;;
78581;SDS011;67878;46.242;5.974;2023-03-19T07:11:37;0.38;;;0.38;;
78581;SDS011;67878;46.242;5.974;2023-03-19T07:14:03;0.55;;;0.47;;
78581;SDS011;67878;46.242;5.974;2023-03-19T07:16:28;0.70;;;0.43;;
78581;SDS011;67878;46.242;5.974;2023-03-19T07:18:54;0.50;;;0.40;;
78581;SDS011;67878;46.242;5.974;2023-03-19T07:21:21;0.50;;;0.30;;
78581;SDS011;67878;46.242;5.974;2023-03-19T07:23:46;0.30;;;0.30;;
78581;SDS011;67878;46.242;5.974;2023-03-19T07:26:13;1.00;;;0.50;;
78581;SDS011;67878;46.242;5.974;2023-03-19T07:28:39;0.60;;;0.40;;
78581;SDS011;67878;46.242;5.974;2023-03-19T07:31:06;0.43;;;0.43;;
78581;SDS011;67878;46.242;5.974;2023-03-19T07:33:31;0.70;;;0.50;;
78581;SDS011;67878;46.242;5.974;2023-03-19T07:35:57;0.40;;;0.30;;
78581;SDS011;67878;46.242;5.974;2023-03-19T07:38:23;0.40;;;0.32;;
78581;SDS011;67878;46.242;5.974;2023-03-19T07:40:51;0.40;;;0.35;;
78581;SDS011;67878;46.242;5.974;2023-03-19T07:43:17;0.73;;;0.60;;
78581;SDS011;67878;46.242;5.974;2023-03-19T07:45:42;0.55;;;0.40;;
78581;SDS011;67878;46.242;5.974;2023-03-19T07:48:08;0.43;;;0.32;;
78581;SDS011;67878;46.242;5.974;2023-03-19T07:50:33;0.50;;;0.50;;
78581;SDS011;67878;46.242;5.974;2023-03-19T07:52:59;0.85;;;0.50;;
78581;SDS011;67878;46.242;5.974;2023-03-19T07:55:25;0.70;;;0.50;;
78581;SDS011;67878;46.242;5.974;2023-03-19T07:57:50;0.40;;;0.30;;
78581;SDS011;67878;46.242;5.974;2023-03-19T08:00:20;0.60;;;0.40;;
78581;SDS011;67878;46.242;5.974;2023-03-19T08:02:46;0.55;;;0.40;;
78581;SDS011;67878;46.242;5.974;2023-03-19T08:05:12;1.00;;;0.50;;
78581;SDS011;67878;46.242;5.974;2023-03-19T08:07:40;1.00;;;0.55;;
78581;SDS011;67878;46.242;5.974;2023-03-19T08:10:05;1.25;;;0.63;;
78581;SDS011;67878;46.242;5.974;2023-03-19T08:12:33;0.60;;;0.50;;
78581;SDS011;67878;46.242;5.974;2023-03-19T08:15:05;0.50;;;0.32;;
78581;SDS011;67878;46.242;5.974;2023-03-19T08:17:36;0.57;;;0.35;;
78581;SDS011;67878;46.242;5.974;2023-03-19T08:20:10;0.98;;;0.50;;
78581;SDS011;67878;46.242;5.974;2023-03-19T08:25:03;0.65;;;0.60;;
78581;SDS011;67878;46.242;5.974;2023-03-19T08:27:32;1.30;;;0.70;;
78581;SDS011;67878;46.242;5.974;2023-03-19T08:30:02;1.83;;;0.73;;
78581;SDS011;67878;46.242;5.974;2023-03-19T08:32:30;1.85;;;0.80;;
78581;SDS011;67878;46.242;5.974;2023-03-19T08:34:58;0.95;;;0.50;;
78581;SDS011;67878;46.242;5.974;2023-03-19T08:37:25;0.77;;;0.52;;
78581;SDS011;67878;46.242;5.974;2023-03-19T08:39:51;0.90;;;0.60;;
78581;SDS011;67878;46.242;5.974;2023-03-19T08:42:17;0.88;;;0.43;;
78581;SDS011;67878;46.242;5.974;2023-03-19T08:44:43;1.42;;;0.60;;
78581;SDS011;67878;46.242;5.974;2023-03-19T08:47:09;0.57;;;0.50;;
78581;SDS011;67878;46.242;5.974;2023-03-19T08:49:40;0.45;;;0.40;;
78581;SDS011;67878;46.242;5.974;2023-03-19T08:52:10;0.73;;;0.52;;
78581;SDS011;67878;46.242;5.974;2023-03-19T08:54:39;1.15;;;0.43;;
78581;SDS011;67878;46.242;5.974;2023-03-19T08:57:06;0.70;;;0.60;;
78581;SDS011;67878;46.242;5.974;2023-03-19T08:59:31;1.00;;;0.70;;
78581;SDS011;67878;46.242;5.974;2023-03-19T09:01:57;1.52;;;0.50;;
78581;SDS011;67878;46.242;5.974;2023-03-19T09:04:22;0.73;;;0.40;;
78581;SDS011;67878;46.242;5.974;2023-03-19T09:06:47;1.38;;;0.57;;
78581;SDS011;67878;46.242;5.974;2023-03-19T09:09:17;1.00;;;0.70;;
78581;SDS011;67878;46.242;5.974;2023-03-19T09:11:45;1.30;;;0.70;;
78581;SDS011;67878;46.242;5.974;2023-03-19T09:14:12;0.52;;;0.47;;
78581;SDS011;67878;46.242;5.974;2023-03-19T09:16:38;0.50;;;0.45;;
78581;SDS011;67878;46.242;5.974;2023-03-19T09:19:04;0.68;;;0.43;;
78581;SDS011;67878;46.242;5.974;2023-03-19T09:21:29;0.60;;;0.50;;
78581;SDS011;67878;46.242;5.974;2023-03-19T09:23:55;0.63;;;0.50;;
78581;SDS011;67878;46.242;5.974;2023-03-19T09:26:21;0.60;;;0.40;;
78581;SDS011;67878;46.242;5.974;2023-03-19T09:28:46;0.63;;;0.63;;
78581;SDS011;67878;46.242;5.974;2023-03-19T09:31:12;1.30;;;0.60;;
78581;SDS011;67878;46.242;5.974;2023-03-19T09:33:38;0.70;;;0.45;;
78581;SDS011;67878;46.242;5.974;2023-03-19T09:36:06;1.30;;;0.60;;
78581;SDS011;67878;46.242;5.974;2023-03-19T09:41:09;1.10;;;0.55;;
78581;SDS011;67878;46.242;5.974;2023-03-19T09:43:56;0.70;;;0.60;;
78581;SDS011;67878;46.242;5.974;2023-03-19T09:46:26;0.65;;;0.47;;
78581;SDS011;67878;46.242;5.974;2023-03-19T09:48:57;1.00;;;0.60;;
78581;SDS011;67878;46.242;5.974;2023-03-19T09:51:47;0.80;;;0.50;;
78581;SDS011;67878;46.242;5.974;2023-03-19T09:54:50;0.50;;;0.40;;
78581;SDS011;67878;46.242;5.974;2023-03-19T09:57:14;1.58;;;0.55;;
78581;SDS011;67878;46.242;5.974;2023-03-19T09:59:43;0.57;;;0.57;;
78581;SDS011;67878;46.242;5.974;2023-03-19T10:02:23;0.68;;;0.60;;
78581;SDS011;67878;46.242;5.974;2023-03-19T10:10:56;0.65;;;0.47;;
78581;SDS011;67878;46.242;5.974;2023-03-19T10:13:42;1.30;;;0.50;;
78581;SDS011;67878;46.242;5.974;2023-03-19T10:16:20;1.08;;;0.63;;
78581;SDS011;67878;46.242;5.974;2023-03-19T10:18:53;0.88;;;0.50;;
78581;SDS011;67878;46.242;5.974;2023-03-19T10:21:26;2.08;;;0.68;;
78581;SDS011;67878;46.242;5.974;2023-03-19T10:24:10;1.25;;;0.73;;
78581;SDS011;67878;46.242;5.974;2023-03-19T10:29:10;0.57;;;0.50;;
78581;SDS011;67878;46.242;5.974;2023-03-19T10:31:41;0.70;;;0.70;;
78581;SDS011;67878;46.242;5.974;2023-03-19T10:36:39;0.77;;;0.50;;
78581;SDS011;67878;46.242;5.974;2023-03-19T10:39:05;1.70;;;0.50;;
78581;SDS011;67878;46.242;5.974;2023-03-19T10:41:37;0.82;;;0.50;;
78581;SDS011;67878;46.242;5.974;2023-03-19T10:44:06;1.08;;;0.52;;
78581;SDS011;67878;46.242;5.974;2023-03-19T10:46:46;0.90;;;0.70;;
78581;SDS011;67878;46.242;5.974;2023-03-19T10:49:13;1.38;;;0.73;;
78581;SDS011;67878;46.242;5.974;2023-03-19T10:51:39;1.23;;;0.50;;
78581;SDS011;67878;46.242;5.974;2023-03-19T10:54:21;1.33;;;0.70;;
78581;SDS011;67878;46.242;5.974;2023-03-19T10:56:53;1.73;;;0.60;;
78581;SDS011;67878;46.242;5.974;2023-03-19T10:59:24;2.53;;;0.80;;
78581;SDS011;67878;46.242;5.974;2023-03-19T11:01:55;9.40;;;3.10;;
78581;SDS011;67878;46.242;5.974;2023-03-19T11:04:26;5.43;;;2.75;;
78581;SDS011;67878;46.242;5.974;2023-03-19T11:07:00;5.65;;;3.25;;
78581;SDS011;67878;46.242;5.974;2023-03-19T11:12:13;4.53;;;2.85;;
78581;SDS011;67878;46.242;5.974;2023-03-19T11:14:51;5.65;;;3.38;;
78581;SDS011;67878;46.242;5.974;2023-03-19T11:17:22;5.07;;;2.47;;
78581;SDS011;67878;46.242;5.974;2023-03-19T11:19:54;5.43;;;2.60;;
78581;SDS011;67878;46.242;5.974;2023-03-19T11:22:32;4.78;;;2.72;;
78581;SDS011;67878;46.242;5.974;2023-03-19T11:24:59;4.85;;;3.00;;
78581;SDS011;67878;46.242;5.974;2023-03-19T11:27:33;5.00;;;2.50;;
78581;SDS011;67878;46.242;5.974;2023-03-19T11:30:05;3.15;;;2.40;;
78581;SDS011;67878;46.242;5.974;2023-03-19T11:35:33;5.57;;;2.90;;
78581;SDS011;67878;46.242;5.974;2023-03-19T11:38:02;4.18;;;2.60;;
78581;SDS011;67878;46.242;5.974;2023-03-19T11:43:18;6.97;;;2.85;;
78581;SDS011;67878;46.242;5.974;2023-03-19T11:48:56;5.88;;;2.50;;
78581;SDS011;67878;46.242;5.974;2023-03-19T12:13:39;5.60;;;2.60;;
78581;SDS011;67878;46.242;5.974;2023-03-19T12:16:14;4.97;;;2.30;;
78581;SDS011;67878;46.242;5.974;2023-03-19T12:35:35;2.95;;;2.05;;
78581;SDS011;67878;46.242;5.974;2023-03-19T12:41:02;3.25;;;2.00;;
78581;SDS011;67878;46.242;5.974;2023-03-19T12:46:28;5.07;;;2.40;;
78581;SDS011;67878;46.242;5.974;2023-03-19T12:49:01;4.50;;;2.00;;
78581;SDS011;67878;46.242;5.974;2023-03-19T12:51:37;2.85;;;2.00;;
78581;SDS011;67878;46.242;5.974;2023-03-19T13:02:23;2.20;;;1.83;;
78581;SDS011;67878;46.242;5.974;2023-03-19T13:04:55;3.30;;;1.85;;
78581;SDS011;67878;46.242;5.974;2023-03-19T13:07:29;2.25;;;1.80;;
78581;SDS011;67878;46.242;5.974;2023-03-19T13:10:03;3.75;;;1.92;;
78581;SDS011;67878;46.242;5.974;2023-03-19T13:12:31;3.15;;;2.05;;
78581;SDS011;67878;46.242;5.974;2023-03-19T13:15:08;2.03;;;1.70;;
78581;SDS011;67878;46.242;5.974;2023-03-19T13:17:58;3.47;;;1.88;;
78581;SDS011;67878;46.242;5.974;2023-03-19T13:23:39;4.03;;;1.92;;
78581;SDS011;67878;46.242;5.974;2023-03-19T13:26:08;2.70;;;2.10;;
78581;SDS011;67878;46.242;5.974;2023-03-19T13:28:35;2.85;;;2.20;;
78581;SDS011;67878;46.242;5.974;2023-03-19T13:31:05;2.25;;;1.80;;
78581;SDS011;67878;46.242;5.974;2023-03-19T13:33:33;2.30;;;1.73;;
78581;SDS011;67878;46.242;5.974;2023-03-19T13:36:03;5.20;;;2.42;;
78581;SDS011;67878;46.242;5.974;2023-03-19T13:38:48;4.25;;;2.05;;
78581;SDS011;67878;46.242;5.974;2023-03-19T13:43:59;3.38;;;1.90;;
78581;SDS011;67878;46.242;5.974;2023-03-19T13:46:42;3.40;;;2.55;;
78581;SDS011;67878;46.242;5.974;2023-03-19T13:51:52;6.25;;;3.80;;
78581;SDS011;67878;46.242;5.974;2023-03-19T13:54:19;5.90;;;3.60;;
78581;SDS011;67878;46.242;5.974;2023-03-19T13:56:54;3.97;;;2.97;;
78581;SDS011;67878;46.242;5.974;2023-03-19T13:59:25;3.97;;;2.50;;
78581;SDS011;67878;46.242;5.974;2023-03-19T14:01:52;2.90;;;2.15;;
78581;SDS011;67878;46.242;5.974;2023-03-19T14:06:55;2.92;;;2.13;;
78581;SDS011;67878;46.242;5.974;2023-03-19T14:14:55;4.57;;;2.33;;
78581;SDS011;67878;46.242;5.974;2023-03-19T14:17:32;2.47;;;1.80;;
78581;SDS011;67878;46.242;5.974;2023-03-19T14:20:03;3.20;;;2.10;;
78581;SDS011;67878;46.242;5.974;2023-03-19T14:25:24;3.35;;;1.70;;
78581;SDS011;67878;46.242;5.974;2023-03-19T14:27:55;3.60;;;2.05;;
78581;SDS011;67878;46.242;5.974;2023-03-19T14:32:48;3.17;;;2.05;;
78581;SDS011;67878;46.242;5.974;2023-03-19T14:35:15;3.40;;;2.10;;
78581;SDS011;67878;46.242;5.974;2023-03-19T14:37:47;2.50;;;1.83;;
78581;SDS011;67878;46.242;5.974;2023-03-19T14:40:18;3.42;;;2.00;;
78581;SDS011;67878;46.242;5.974;2023-03-19T14:50:44;2.53;;;1.73;;
78581;SDS011;67878;46.242;5.974;2023-03-19T14:53:33;2.53;;;1.90;;
78581;SDS011;67878;46.242;5.974;2023-03-19T14:56:13;3.17;;;1.98;;
78581;SDS011;67878;46.242;5.974;2023-03-19T14:58:53;3.35;;;1.73;;
78581;SDS011;67878;46.242;5.974;2023-03-19T15:01:24;2.03;;;1.80;;
78581;SDS011;67878;46.242;5.974;2023-03-19T15:03:56;2.28;;;1.70;;
78581;SDS011;67878;46.242;5.974;2023-03-19T15:06:33;2.45;;;1.98;;
78581;SDS011;67878;46.242;5.974;2023-03-19T15:09:11;2.85;;;1.95;;
78581;SDS011;67878;46.242;5.974;2023-03-19T15:17:27;1.98;;;1.50;;
78581;SDS011;67878;46.242;5.974;2023-03-19T15:19:57;3.22;;;1.63;;
78581;SDS011;67878;46.242;5.974;2023-03-19T15:22:25;3.38;;;1.90;;
78581;SDS011;67878;46.242;5.974;2023-03-19T15:24:56;2.67;;;1.60;;
78581;SDS011;67878;46.242;5.974;2023-03-19T15:27:32;3.03;;;1.60;;
78581;SDS011;67878;46.242;5.974;2023-03-19T15:29:57;3.03;;;1.67;;
78581;SDS011;67878;46.242;5.974;2023-03-19T15:32:33;1.65;;;1.52;;
78581;SDS011;67878;46.242;5.974;2023-03-19T15:35:01;2.03;;;1.70;;
78581;SDS011;67878;46.242;5.974;2023-03-19T15:37:26;2.72;;;1.67;;
78581;SDS011;67878;46.242;5.974;2023-03-19T15:39:56;2.90;;;1.67;;
78581;SDS011;67878;46.242;5.974;2023-03-19T15:42:25;4.90;;;1.60;;
78581;SDS011;67878;46.242;5.974;2023-03-19T15:44:52;4.93;;;1.60;;
78581;SDS011;67878;46.242;5.974;2023-03-19T15:47:22;2.20;;;1.85;;
78581;SDS011;67878;46.242;5.974;2023-03-19T15:49:51;3.60;;;1.95;;
78581;SDS011;67878;46.242;5.974;2023-03-19T15:52:24;2.40;;;1.70;;
78581;SDS011;67878;46.242;5.974;2023-03-19T15:54:50;3.67;;;1.48;;
78581;SDS011;67878;46.242;5.974;2023-03-19T15:57:18;3.55;;;1.65;;
78581;SDS011;67878;46.242;5.974;2023-03-19T15:59:44;6.60;;;2.00;;
78581;SDS011;67878;46.242;5.974;2023-03-19T16:02:15;4.07;;;1.55;;
78581;SDS011;67878;46.242;5.974;2023-03-19T16:04:46;3.15;;;1.90;;
78581;SDS011;67878;46.242;5.974;2023-03-19T16:07:21;8.02;;;1.90;;
78581;SDS011;67878;46.242;5.974;2023-03-19T16:09:56;4.35;;;1.67;;
78581;SDS011;67878;46.242;5.974;2023-03-19T16:14:54;5.28;;;2.03;;
78581;SDS011;67878;46.242;5.974;2023-03-19T16:17:20;4.38;;;1.75;;
78581;SDS011;67878;46.242;5.974;2023-03-19T16:22:15;2.67;;;1.80;;
78581;SDS011;67878;46.242;5.974;2023-03-19T16:24:42;3.13;;;1.50;;
78581;SDS011;67878;46.242;5.974;2023-03-19T16:30:14;9.02;;;2.05;;
78581;SDS011;67878;46.242;5.974;2023-03-19T16:32:45;2.60;;;1.65;;
78581;SDS011;67878;46.242;5.974;2023-03-19T16:35:15;2.70;;;1.58;;
78581;SDS011;67878;46.242;5.974;2023-03-19T16:37:44;5.18;;;1.88;;
78581;SDS011;67878;46.242;5.974;2023-03-19T16:45:26;3.63;;;1.70;;
78581;SDS011;67878;46.242;5.974;2023-03-19T16:50:22;5.32;;;1.95;;
78581;SDS011;67878;46.242;5.974;2023-03-19T16:52:53;4.50;;;1.65;;
78581;SDS011;67878;46.242;5.974;2023-03-19T16:55:23;3.60;;;1.60;;
78581;SDS011;67878;46.242;5.974;2023-03-19T16:57:54;3.85;;;1.67;;
78581;SDS011;67878;46.242;5.974;2023-03-19T17:00:21;6.20;;;2.00;;
78581;SDS011;67878;46.242;5.974;2023-03-19T17:02:49;4.47;;;1.80;;
78581;SDS011;67878;46.242;5.974;2023-03-19T17:05:15;4.35;;;1.70;;
78581;SDS011;67878;46.242;5.974;2023-03-19T17:07:41;4.50;;;1.42;;
78581;SDS011;67878;46.242;5.974;2023-03-19T17:10:13;3.10;;;1.33;;
78581;SDS011;67878;46.242;5.974;2023-03-19T17:12:40;5.80;;;1.50;;
78581;SDS011;67878;46.242;5.974;2023-03-19T17:15:07;3.63;;;1.50;;
78581;SDS011;67878;46.242;5.974;2023-03-19T17:17:47;6.10;;;1.70;;
78581;SDS011;67878;46.242;5.974;2023-03-19T17:20:14;2.72;;;1.80;;
78581;SDS011;67878;46.242;5.974;2023-03-19T17:22:45;1.90;;;1.52;;
78581;SDS011;67878;46.242;5.974;2023-03-19T17:25:11;5.03;;;1.70;;
78581;SDS011;67878;46.242;5.974;2023-03-19T17:27:38;2.58;;;1.50;;
78581;SDS011;67878;46.242;5.974;2023-03-19T17:30:04;3.72;;;1.75;;